sensor_id;sensor_type;location;lat;lon;timestamp;temperature;humidity
20706;DHT22;10514;49.468;11.044;2024-01-30T00:01:13;0.70;93.00
20706;DHT22;10514;49.468;11.044;2024-01-30T00:03:39;0.80;92.90
20706;DHT22;10514;49.468;11.044;2024-01-30T00:06:04;0.70;92.60
20706;DHT22;10514;49.468;11.044;2024-01-30T00:08:30;0.70;92.80
20706;DHT22;10514;49.468;11.044;2024-01-30T00:10:55;0.70;92.90
20706;DHT22;10514;49.468;11.044;2024-01-30T00:13:21;0.70;93.00
20706;DHT22;10514;49.468;11.044;2024-01-30T00:15:46;0.70;93.00
20706;DHT22;10514;49.468;11.044;2024-01-30T00:18:12;0.80;93.30
20706;DHT22;10514;49.468;11.044;2024-01-30T00:20:38;0.90;93.00
20706;DHT22;10514;49.468;11.044;2024-01-30T00:23:03;1.00;92.80
20706;DHT22;10514;49.468;11.044;2024-01-30T00:25:30;1.00;92.60
20706;DHT22;10514;49.468;11.044;2024-01-30T00:27:55;1.10;92.50
20706;DHT22;10514;49.468;11.044;2024-01-30T00:30:21;1.10;92.30
20706;DHT22;10514;49.468;11.044;2024-01-30T00:32:46;1.10;92.20
20706;DHT22;10514;49.468;11.044;2024-01-30T00:35:12;1.20;92.10
20706;DHT22;10514;49.468;11.044;2024-01-30T00:37:37;1.10;91.80
20706;DHT22;10514;49.468;11.044;2024-01-30T00:40:03;1.30;91.80
20706;DHT22;10514;49.468;11.044;2024-01-30T00:42:29;1.20;91.50
20706;DHT22;10514;49.468;11.044;2024-01-30T00:44:54;1.20;91.30
20706;DHT22;10514;49.468;11.044;2024-01-30T00:47:20;1.20;91.40
20706;DHT22;10514;49.468;11.044;2024-01-30T00:49:45;1.20;91.00
20706;DHT22;10514;49.468;11.044;2024-01-30T00:52:11;1.30;91.00
20706;DHT22;10514;49.468;11.044;2024-01-30T00:54:37;1.20;90.90
20706;DHT22;10514;49.468;11.044;2024-01-30T00:57:03;1.20;90.90
20706;DHT22;10514;49.468;11.044;2024-01-30T00:59:28;1.20;90.90
20706;DHT22;10514;49.468;11.044;2024-01-30T01:01:54;1.10;91.00
20706;DHT22;10514;49.468;11.044;2024-01-30T01:04:19;1.10;90.90
20706;DHT22;10514;49.468;11.044;2024-01-30T01:06:47;1.00;91.20
20706;DHT22;10514;49.468;11.044;2024-01-30T01:09:12;1.00;91.10
20706;DHT22;10514;49.468;11.044;2024-01-30T01:11:38;1.00;91.20
20706;DHT22;10514;49.468;11.044;2024-01-30T01:14:04;1.00;91.20
20706;DHT22;10514;49.468;11.044;2024-01-30T01:16:30;0.90;91.20
20706;DHT22;10514;49.468;11.044;2024-01-30T01:18:56;0.80;91.20
20706;DHT22;10514;49.468;11.044;2024-01-30T01:21:21;0.80;91.30
20706;DHT22;10514;49.468;11.044;2024-01-30T01:23:48;0.80;91.30
20706;DHT22;10514;49.468;11.044;2024-01-30T01:26:13;0.70;91.30
20706;DHT22;10514;49.468;11.044;2024-01-30T01:28:40;0.70;91.40
20706;DHT22;10514;49.468;11.044;2024-01-30T01:31:06;0.60;91.00
20706;DHT22;10514;49.468;11.044;2024-01-30T01:33:32;0.60;91.40
20706;DHT22;10514;49.468;11.044;2024-01-30T01:35:59;0.50;91.40
20706;DHT22;10514;49.468;11.044;2024-01-30T01:38:24;0.50;91.70
20706;DHT22;10514;49.468;11.044;2024-01-30T01:40:50;0.40;91.80
20706;DHT22;10514;49.468;11.044;2024-01-30T01:43:16;0.40;91.80
20706;DHT22;10514;49.468;11.044;2024-01-30T01:45:42;0.40;92.00
20706;DHT22;10514;49.468;11.044;2024-01-30T01:48:07;0.30;91.90
20706;DHT22;10514;49.468;11.044;2024-01-30T01:50:34;0.30;92.10
20706;DHT22;10514;49.468;11.044;2024-01-30T01:53:01;0.30;92.20
20706;DHT22;10514;49.468;11.044;2024-01-30T01:55:28;0.30;92.30
20706;DHT22;10514;49.468;11.044;2024-01-30T01:57:54;0.30;92.60
20706;DHT22;10514;49.468;11.044;2024-01-30T02:00:20;0.40;92.50
20706;DHT22;10514;49.468;11.044;2024-01-30T02:02:46;0.40;92.20
20706;DHT22;10514;49.468;11.044;2024-01-30T02:05:12;0.60;91.90
20706;DHT22;10514;49.468;11.044;2024-01-30T02:07:38;0.60;91.60
20706;DHT22;10514;49.468;11.044;2024-01-30T02:10:04;0.60;91.40
20706;DHT22;10514;49.468;11.044;2024-01-30T02:12:30;0.70;91.40
20706;DHT22;10514;49.468;11.044;2024-01-30T02:14:56;0.80;91.30
20706;DHT22;10514;49.468;11.044;2024-01-30T02:17:21;0.80;91.20
20706;DHT22;10514;49.468;11.044;2024-01-30T02:19:49;0.80;91.00
20706;DHT22;10514;49.468;11.044;2024-01-30T02:22:14;0.80;91.10
20706;DHT22;10514;49.468;11.044;2024-01-30T02:24:40;0.90;91.00
20706;DHT22;10514;49.468;11.044;2024-01-30T02:27:05;0.80;91.10
20706;DHT22;10514;49.468;11.044;2024-01-30T02:29:31;0.80;91.00
20706;DHT22;10514;49.468;11.044;2024-01-30T02:31:56;0.70;91.00
20706;DHT22;10514;49.468;11.044;2024-01-30T02:34:23;0.70;90.60
20706;DHT22;10514;49.468;11.044;2024-01-30T02:36:48;0.60;90.80
20706;DHT22;10514;49.468;11.044;2024-01-30T02:39:14;0.60;91.10
20706;DHT22;10514;49.468;11.044;2024-01-30T02:41:40;0.60;91.40
20706;DHT22;10514;49.468;11.044;2024-01-30T02:44:05;0.60;91.40
20706;DHT22;10514;49.468;11.044;2024-01-30T02:46:31;0.50;91.40
20706;DHT22;10514;49.468;11.044;2024-01-30T02:48:56;0.40;91.80
20706;DHT22;10514;49.468;11.044;2024-01-30T02:51:22;0.50;91.90
20706;DHT22;10514;49.468;11.044;2024-01-30T02:53:47;0.40;91.70
20706;DHT22;10514;49.468;11.044;2024-01-30T02:56:13;0.40;91.90
20706;DHT22;10514;49.468;11.044;2024-01-30T02:58:42;0.40;91.90
20706;DHT22;10514;49.468;11.044;2024-01-30T03:01:07;0.40;91.70
20706;DHT22;10514;49.468;11.044;2024-01-30T03:03:33;0.30;91.50
20706;DHT22;10514;49.468;11.044;2024-01-30T03:06:00;0.30;91.80
20706;DHT22;10514;49.468;11.044;2024-01-30T03:08:26;0.20;92.20
20706;DHT22;10514;49.468;11.044;2024-01-30T03:10:51;0.20;92.30
20706;DHT22;10514;49.468;11.044;2024-01-30T03:13:17;0.20;92.20
20706;DHT22;10514;49.468;11.044;2024-01-30T03:15:42;0.20;92.30
20706;DHT22;10514;49.468;11.044;2024-01-30T03:18:08;0.10;92.00
20706;DHT22;10514;49.468;11.044;2024-01-30T03:20:34;-0.30;92.20
20706;DHT22;10514;49.468;11.044;2024-01-30T03:23:00;0.00;92.20
20706;DHT22;10514;49.468;11.044;2024-01-30T03:25:26;0.00;92.40
20706;DHT22;10514;49.468;11.044;2024-01-30T03:27:51;-0.10;92.30
20706;DHT22;10514;49.468;11.044;2024-01-30T03:30:17;-0.10;92.70
20706;DHT22;10514;49.468;11.044;2024-01-30T03:32:43;-0.10;92.70
20706;DHT22;10514;49.468;11.044;2024-01-30T03:35:09;-0.10;92.90
20706;DHT22;10514;49.468;11.044;2024-01-30T03:37:35;-0.10;92.90
20706;DHT22;10514;49.468;11.044;2024-01-30T03:40:01;-0.10;92.70
20706;DHT22;10514;49.468;11.044;2024-01-30T03:42:28;-0.10;92.90
20706;DHT22;10514;49.468;11.044;2024-01-30T03:44:53;-0.10;93.10
20706;DHT22;10514;49.468;11.044;2024-01-30T03:47:20;-0.20;92.90
20706;DHT22;10514;49.468;11.044;2024-01-30T03:49:46;-0.20;92.90
20706;DHT22;10514;49.468;11.044;2024-01-30T03:52:11;-0.20;93.00
20706;DHT22;10514;49.468;11.044;2024-01-30T03:54:37;-0.20;93.10
20706;DHT22;10514;49.468;11.044;2024-01-30T03:57:03;-0.20;93.10
20706;DHT22;10514;49.468;11.044;2024-01-30T03:59:30;-0.20;93.10
20706;DHT22;10514;49.468;11.044;2024-01-30T04:01:56;-0.20;93.30
20706;DHT22;10514;49.468;11.044;2024-01-30T04:04:21;-0.20;93.60
20706;DHT22;10514;49.468;11.044;2024-01-30T04:06:48;-0.10;93.70
20706;DHT22;10514;49.468;11.044;2024-01-30T04:09:13;0.00;94.00
20706;DHT22;10514;49.468;11.044;2024-01-30T04:11:40;0.10;93.90
20706;DHT22;10514;49.468;11.044;2024-01-30T04:14:05;0.10;93.70
20706;DHT22;10514;49.468;11.044;2024-01-30T04:16:31;0.20;93.70
20706;DHT22;10514;49.468;11.044;2024-01-30T04:18:57;0.10;93.60
20706;DHT22;10514;49.468;11.044;2024-01-30T04:21:23;0.10;93.70
20706;DHT22;10514;49.468;11.044;2024-01-30T04:23:48;0.20;93.80
20706;DHT22;10514;49.468;11.044;2024-01-30T04:26:14;0.10;93.60
20706;DHT22;10514;49.468;11.044;2024-01-30T04:28:44;0.10;93.80
20706;DHT22;10514;49.468;11.044;2024-01-30T04:31:10;0.20;94.10
20706;DHT22;10514;49.468;11.044;2024-01-30T04:33:36;0.30;93.90
20706;DHT22;10514;49.468;11.044;2024-01-30T04:36:02;0.30;93.80
20706;DHT22;10514;49.468;11.044;2024-01-30T04:38:28;0.30;93.90
20706;DHT22;10514;49.468;11.044;2024-01-30T04:40:53;0.40;93.90
20706;DHT22;10514;49.468;11.044;2024-01-30T04:43:19;0.50;93.60
20706;DHT22;10514;49.468;11.044;2024-01-30T04:45:44;0.60;93.20
20706;DHT22;10514;49.468;11.044;2024-01-30T04:48:10;0.60;93.20
20706;DHT22;10514;49.468;11.044;2024-01-30T04:50:35;0.60;93.10
20706;DHT22;10514;49.468;11.044;2024-01-30T04:53:01;0.70;93.10
20706;DHT22;10514;49.468;11.044;2024-01-30T04:55:27;0.80;92.80
20706;DHT22;10514;49.468;11.044;2024-01-30T04:57:52;0.90;92.40
20706;DHT22;10514;49.468;11.044;2024-01-30T05:00:18;0.90;92.50
20706;DHT22;10514;49.468;11.044;2024-01-30T05:02:44;0.90;92.40
20706;DHT22;10514;49.468;11.044;2024-01-30T05:05:09;0.90;92.40
20706;DHT22;10514;49.468;11.044;2024-01-30T05:07:36;1.00;92.20
20706;DHT22;10514;49.468;11.044;2024-01-30T05:10:01;1.00;92.00
20706;DHT22;10514;49.468;11.044;2024-01-30T05:12:27;1.10;91.90
20706;DHT22;10514;49.468;11.044;2024-01-30T05:14:52;1.10;91.80
20706;DHT22;10514;49.468;11.044;2024-01-30T05:17:18;1.10;91.70
20706;DHT22;10514;49.468;11.044;2024-01-30T05:19:44;1.20;91.60
20706;DHT22;10514;49.468;11.044;2024-01-30T05:22:09;1.10;91.60
20706;DHT22;10514;49.468;11.044;2024-01-30T05:24:36;1.20;91.70
20706;DHT22;10514;49.468;11.044;2024-01-30T05:27:02;1.30;91.50
20706;DHT22;10514;49.468;11.044;2024-01-30T05:29:27;1.30;91.10
20706;DHT22;10514;49.468;11.044;2024-01-30T05:31:53;1.30;90.90
20706;DHT22;10514;49.468;11.044;2024-01-30T05:34:18;1.40;90.90
20706;DHT22;10514;49.468;11.044;2024-01-30T05:36:44;1.40;90.60
20706;DHT22;10514;49.468;11.044;2024-01-30T05:39:09;1.40;90.50
20706;DHT22;10514;49.468;11.044;2024-01-30T05:41:35;1.40;90.60
20706;DHT22;10514;49.468;11.044;2024-01-30T05:44:01;1.40;90.70
20706;DHT22;10514;49.468;11.044;2024-01-30T05:46:27;1.40;90.70
20706;DHT22;10514;49.468;11.044;2024-01-30T05:48:52;1.40;90.70
20706;DHT22;10514;49.468;11.044;2024-01-30T05:51:18;1.40;90.80
20706;DHT22;10514;49.468;11.044;2024-01-30T05:53:43;1.40;90.70
20706;DHT22;10514;49.468;11.044;2024-01-30T05:56:09;1.40;90.80
20706;DHT22;10514;49.468;11.044;2024-01-30T05:58:34;1.40;90.70
20706;DHT22;10514;49.468;11.044;2024-01-30T06:01:00;1.40;90.80
20706;DHT22;10514;49.468;11.044;2024-01-30T06:03:26;1.40;90.60
20706;DHT22;10514;49.468;11.044;2024-01-30T06:05:51;1.40;90.70
20706;DHT22;10514;49.468;11.044;2024-01-30T06:08:17;1.40;90.80
20706;DHT22;10514;49.468;11.044;2024-01-30T06:10:43;1.50;90.70
20706;DHT22;10514;49.468;11.044;2024-01-30T06:13:08;1.60;90.50
20706;DHT22;10514;49.468;11.044;2024-01-30T06:15:34;1.70;90.00
20706;DHT22;10514;49.468;11.044;2024-01-30T06:17:59;1.70;89.80
20706;DHT22;10514;49.468;11.044;2024-01-30T06:20:25;1.70;89.70
20706;DHT22;10514;49.468;11.044;2024-01-30T06:22:50;1.80;89.60
20706;DHT22;10514;49.468;11.044;2024-01-30T06:25:16;1.70;89.60
20706;DHT22;10514;49.468;11.044;2024-01-30T06:27:42;1.60;90.00
20706;DHT22;10514;49.468;11.044;2024-01-30T06:30:08;1.60;90.30
20706;DHT22;10514;49.468;11.044;2024-01-30T06:32:35;1.60;90.30
20706;DHT22;10514;49.468;11.044;2024-01-30T06:35:01;1.60;90.20
20706;DHT22;10514;49.468;11.044;2024-01-30T06:37:27;1.70;90.10
20706;DHT22;10514;49.468;11.044;2024-01-30T06:39:52;1.80;89.70
20706;DHT22;10514;49.468;11.044;2024-01-30T06:42:18;1.70;89.40
20706;DHT22;10514;49.468;11.044;2024-01-30T06:44:44;1.80;89.70
20706;DHT22;10514;49.468;11.044;2024-01-30T06:47:10;1.70;89.80
20706;DHT22;10514;49.468;11.044;2024-01-30T06:49:35;1.60;90.00
20706;DHT22;10514;49.468;11.044;2024-01-30T06:52:05;1.60;90.00
20706;DHT22;10514;49.468;11.044;2024-01-30T06:54:31;1.50;90.00
20706;DHT22;10514;49.468;11.044;2024-01-30T06:56:56;1.60;90.00
20706;DHT22;10514;49.468;11.044;2024-01-30T06:59:22;1.70;90.00
20706;DHT22;10514;49.468;11.044;2024-01-30T07:01:47;1.60;90.00
20706;DHT22;10514;49.468;11.044;2024-01-30T07:04:13;1.70;90.10
20706;DHT22;10514;49.468;11.044;2024-01-30T07:06:38;1.70;90.00
20706;DHT22;10514;49.468;11.044;2024-01-30T07:09:04;1.80;89.30
20706;DHT22;10514;49.468;11.044;2024-01-30T07:11:30;1.80;89.70
20706;DHT22;10514;49.468;11.044;2024-01-30T07:13:56;1.80;89.70
20706;DHT22;10514;49.468;11.044;2024-01-30T07:16:22;1.70;89.50
20706;DHT22;10514;49.468;11.044;2024-01-30T07:18:48;1.70;90.00
20706;DHT22;10514;49.468;11.044;2024-01-30T07:21:14;1.70;90.00
20706;DHT22;10514;49.468;11.044;2024-01-30T07:23:40;1.80;89.90
20706;DHT22;10514;49.468;11.044;2024-01-30T07:26:07;1.80;90.00
20706;DHT22;10514;49.468;11.044;2024-01-30T07:28:34;1.90;89.60
20706;DHT22;10514;49.468;11.044;2024-01-30T07:31:00;1.90;89.70
20706;DHT22;10514;49.468;11.044;2024-01-30T07:33:25;1.90;89.20
20706;DHT22;10514;49.468;11.044;2024-01-30T07:35:53;2.00;89.10
20706;DHT22;10514;49.468;11.044;2024-01-30T07:38:19;2.10;88.70
20706;DHT22;10514;49.468;11.044;2024-01-30T07:40:44;2.10;88.10
20706;DHT22;10514;49.468;11.044;2024-01-30T07:43:10;2.10;88.20
20706;DHT22;10514;49.468;11.044;2024-01-30T07:45:36;2.30;88.00
20706;DHT22;10514;49.468;11.044;2024-01-30T07:48:03;2.30;88.00
20706;DHT22;10514;49.468;11.044;2024-01-30T07:50:28;2.40;87.30
20706;DHT22;10514;49.468;11.044;2024-01-30T07:52:56;2.50;86.70
20706;DHT22;10514;49.468;11.044;2024-01-30T07:55:22;2.70;85.50
20706;DHT22;10514;49.468;11.044;2024-01-30T07:57:54;2.70;85.50
20706;DHT22;10514;49.468;11.044;2024-01-30T08:00:21;2.80;84.70
20706;DHT22;10514;49.468;11.044;2024-01-30T08:02:47;2.90;83.80
20706;DHT22;10514;49.468;11.044;2024-01-30T08:05:12;2.90;84.10
20706;DHT22;10514;49.468;11.044;2024-01-30T08:07:43;3.00;83.80
20706;DHT22;10514;49.468;11.044;2024-01-30T08:10:11;3.10;83.10
20706;DHT22;10514;49.468;11.044;2024-01-30T08:12:37;3.20;82.80
20706;DHT22;10514;49.468;11.044;2024-01-30T08:15:03;3.20;82.20
20706;DHT22;10514;49.468;11.044;2024-01-30T08:17:29;3.30;82.10
20706;DHT22;10514;49.468;11.044;2024-01-30T08:19:54;3.40;81.60
20706;DHT22;10514;49.468;11.044;2024-01-30T08:22:20;3.40;81.80
20706;DHT22;10514;49.468;11.044;2024-01-30T08:24:45;3.40;81.70
20706;DHT22;10514;49.468;11.044;2024-01-30T08:27:11;3.40;81.30
20706;DHT22;10514;49.468;11.044;2024-01-30T08:29:37;3.50;81.10
20706;DHT22;10514;49.468;11.044;2024-01-30T08:32:05;3.60;80.70
20706;DHT22;10514;49.468;11.044;2024-01-30T08:34:30;3.60;80.60
20706;DHT22;10514;49.468;11.044;2024-01-30T08:36:56;3.60;80.60
20706;DHT22;10514;49.468;11.044;2024-01-30T08:39:21;3.60;80.70
20706;DHT22;10514;49.468;11.044;2024-01-30T08:41:47;3.60;80.50
20706;DHT22;10514;49.468;11.044;2024-01-30T08:44:12;3.70;80.50
20706;DHT22;10514;49.468;11.044;2024-01-30T08:46:38;3.80;79.80
20706;DHT22;10514;49.468;11.044;2024-01-30T08:49:03;3.80;79.60
20706;DHT22;10514;49.468;11.044;2024-01-30T08:51:33;3.90;79.30
20706;DHT22;10514;49.468;11.044;2024-01-30T08:53:59;3.90;79.00
20706;DHT22;10514;49.468;11.044;2024-01-30T08:56:24;3.90;78.80
20706;DHT22;10514;49.468;11.044;2024-01-30T08:58:50;4.00;78.90
20706;DHT22;10514;49.468;11.044;2024-01-30T09:01:15;4.00;78.80
20706;DHT22;10514;49.468;11.044;2024-01-30T09:03:41;4.10;78.30
20706;DHT22;10514;49.468;11.044;2024-01-30T09:06:09;4.10;78.80
20706;DHT22;10514;49.468;11.044;2024-01-30T09:08:35;4.20;78.20
20706;DHT22;10514;49.468;11.044;2024-01-30T09:11:00;4.30;78.20
20706;DHT22;10514;49.468;11.044;2024-01-30T09:13:26;4.40;78.00
20706;DHT22;10514;49.468;11.044;2024-01-30T09:15:51;4.40;76.80
20706;DHT22;10514;49.468;11.044;2024-01-30T09:18:18;4.50;77.20
20706;DHT22;10514;49.468;11.044;2024-01-30T09:20:44;4.60;76.40
20706;DHT22;10514;49.468;11.044;2024-01-30T09:23:12;4.60;76.70
20706;DHT22;10514;49.468;11.044;2024-01-30T09:25:38;4.80;75.80
20706;DHT22;10514;49.468;11.044;2024-01-30T09:28:04;4.90;75.90
20706;DHT22;10514;49.468;11.044;2024-01-30T09:30:30;5.00;75.50
20706;DHT22;10514;49.468;11.044;2024-01-30T09:32:55;5.20;75.70
20706;DHT22;10514;49.468;11.044;2024-01-30T09:35:21;5.50;73.70
20706;DHT22;10514;49.468;11.044;2024-01-30T09:37:46;5.70;73.30
20706;DHT22;10514;49.468;11.044;2024-01-30T09:40:12;5.80;73.20
20706;DHT22;10514;49.468;11.044;2024-01-30T09:42:37;6.10;72.40
20706;DHT22;10514;49.468;11.044;2024-01-30T09:45:04;6.20;70.80
20706;DHT22;10514;49.468;11.044;2024-01-30T09:47:43;6.30;70.40
20706;DHT22;10514;49.468;11.044;2024-01-30T09:50:13;6.30;70.40
20706;DHT22;10514;49.468;11.044;2024-01-30T09:52:39;6.20;70.00
20706;DHT22;10514;49.468;11.044;2024-01-30T09:55:06;6.30;71.00
20706;DHT22;10514;49.468;11.044;2024-01-30T09:57:32;6.30;70.90
20706;DHT22;10514;49.468;11.044;2024-01-30T09:59:58;6.20;70.80
20706;DHT22;10514;49.468;11.044;2024-01-30T10:02:23;6.30;70.70
20706;DHT22;10514;49.468;11.044;2024-01-30T10:04:51;6.20;70.40
20706;DHT22;10514;49.468;11.044;2024-01-30T10:07:17;6.30;70.90
20706;DHT22;10514;49.468;11.044;2024-01-30T10:09:43;6.30;70.90
20706;DHT22;10514;49.468;11.044;2024-01-30T10:12:09;6.30;70.90
20706;DHT22;10514;49.468;11.044;2024-01-30T10:14:42;6.40;71.60
20706;DHT22;10514;49.468;11.044;2024-01-30T10:17:08;6.40;71.40
20706;DHT22;10514;49.468;11.044;2024-01-30T10:19:35;6.60;70.80
20706;DHT22;10514;49.468;11.044;2024-01-30T10:22:01;6.70;70.80
20706;DHT22;10514;49.468;11.044;2024-01-30T10:24:27;6.80;69.80
20706;DHT22;10514;49.468;11.044;2024-01-30T10:26:54;6.90;69.70
20706;DHT22;10514;49.468;11.044;2024-01-30T10:29:20;6.90;69.60
20706;DHT22;10514;49.468;11.044;2024-01-30T10:31:45;6.90;68.80
20706;DHT22;10514;49.468;11.044;2024-01-30T10:34:12;6.90;69.20
20706;DHT22;10514;49.468;11.044;2024-01-30T10:36:41;7.00;69.50
20706;DHT22;10514;49.468;11.044;2024-01-30T10:39:08;7.00;69.20
20706;DHT22;10514;49.468;11.044;2024-01-30T10:41:43;7.10;69.20
20706;DHT22;10514;49.468;11.044;2024-01-30T10:44:09;7.10;69.20
20706;DHT22;10514;49.468;11.044;2024-01-30T10:46:38;7.20;70.40
20706;DHT22;10514;49.468;11.044;2024-01-30T10:49:05;7.30;70.20
20706;DHT22;10514;49.468;11.044;2024-01-30T10:51:32;7.40;71.90
20706;DHT22;10514;49.468;11.044;2024-01-30T10:53:57;7.50;70.50
20706;DHT22;10514;49.468;11.044;2024-01-30T10:56:24;7.70;71.90
20706;DHT22;10514;49.468;11.044;2024-01-30T10:58:51;7.90;69.20
20706;DHT22;10514;49.468;11.044;2024-01-30T11:01:22;8.00;70.20
20706;DHT22;10514;49.468;11.044;2024-01-30T11:03:52;8.10;68.80
20706;DHT22;10514;49.468;11.044;2024-01-30T11:06:18;7.80;67.50
20706;DHT22;10514;49.468;11.044;2024-01-30T11:08:59;8.00;68.00
20706;DHT22;10514;49.468;11.044;2024-01-30T11:11:25;8.10;67.80
20706;DHT22;10514;49.468;11.044;2024-01-30T11:13:50;8.10;67.00
20706;DHT22;10514;49.468;11.044;2024-01-30T11:16:16;8.20;66.90
20706;DHT22;10514;49.468;11.044;2024-01-30T11:18:42;8.20;67.10
20706;DHT22;10514;49.468;11.044;2024-01-30T11:21:08;8.20;66.40
20706;DHT22;10514;49.468;11.044;2024-01-30T11:23:34;8.10;66.50
20706;DHT22;10514;49.468;11.044;2024-01-30T11:26:01;8.10;67.00
20706;DHT22;10514;49.468;11.044;2024-01-30T11:28:33;8.10;66.80
20706;DHT22;10514;49.468;11.044;2024-01-30T11:31:04;8.20;66.40
20706;DHT22;10514;49.468;11.044;2024-01-30T11:33:30;8.10;66.50
20706;DHT22;10514;49.468;11.044;2024-01-30T11:35:58;8.20;67.30
20706;DHT22;10514;49.468;11.044;2024-01-30T11:38:28;8.30;67.00
20706;DHT22;10514;49.468;11.044;2024-01-30T11:40:57;8.30;66.20
20706;DHT22;10514;49.468;11.044;2024-01-30T11:43:23;8.50;66.10
20706;DHT22;10514;49.468;11.044;2024-01-30T11:45:49;8.50;66.30
20706;DHT22;10514;49.468;11.044;2024-01-30T11:48:15;8.60;65.60
20706;DHT22;10514;49.468;11.044;2024-01-30T11:50:40;8.50;65.50
20706;DHT22;10514;49.468;11.044;2024-01-30T11:53:06;8.60;65.40
20706;DHT22;10514;49.468;11.044;2024-01-30T11:55:32;8.50;65.40
20706;DHT22;10514;49.468;11.044;2024-01-30T11:57:58;8.50;65.40
20706;DHT22;10514;49.468;11.044;2024-01-30T12:00:24;8.50;65.80
20706;DHT22;10514;49.468;11.044;2024-01-30T12:02:51;8.60;65.60
20706;DHT22;10514;49.468;11.044;2024-01-30T12:05:21;8.60;65.60
20706;DHT22;10514;49.468;11.044;2024-01-30T12:07:46;8.60;68.00
20706;DHT22;10514;49.468;11.044;2024-01-30T12:10:15;8.80;71.20
20706;DHT22;10514;49.468;11.044;2024-01-30T12:12:49;8.80;69.30
20706;DHT22;10514;49.468;11.044;2024-01-30T12:15:15;8.90;67.80
20706;DHT22;10514;49.468;11.044;2024-01-30T12:17:41;9.10;66.00
20706;DHT22;10514;49.468;11.044;2024-01-30T12:20:14;9.20;63.80
20706;DHT22;10514;49.468;11.044;2024-01-30T12:22:44;9.10;63.80
20706;DHT22;10514;49.468;11.044;2024-01-30T12:25:13;9.10;64.00
20706;DHT22;10514;49.468;11.044;2024-01-30T12:27:42;9.10;64.30
20706;DHT22;10514;49.468;11.044;2024-01-30T12:30:10;9.10;64.40
20706;DHT22;10514;49.468;11.044;2024-01-30T12:32:40;9.10;64.40
20706;DHT22;10514;49.468;11.044;2024-01-30T12:35:11;9.30;63.90
20706;DHT22;10514;49.468;11.044;2024-01-30T12:37:37;9.40;63.80
20706;DHT22;10514;49.468;11.044;2024-01-30T12:40:03;9.30;63.40
20706;DHT22;10514;49.468;11.044;2024-01-30T12:42:29;9.30;64.20
20706;DHT22;10514;49.468;11.044;2024-01-30T12:44:57;9.30;63.70
20706;DHT22;10514;49.468;11.044;2024-01-30T12:47:23;9.40;63.40
20706;DHT22;10514;49.468;11.044;2024-01-30T12:49:49;9.40;63.00
20706;DHT22;10514;49.468;11.044;2024-01-30T12:52:19;9.40;63.10
20706;DHT22;10514;49.468;11.044;2024-01-30T12:54:44;9.40;63.30
20706;DHT22;10514;49.468;11.044;2024-01-30T12:57:10;9.40;63.40
20706;DHT22;10514;49.468;11.044;2024-01-30T12:59:35;9.50;63.30
20706;DHT22;10514;49.468;11.044;2024-01-30T13:02:01;9.50;62.80
20706;DHT22;10514;49.468;11.044;2024-01-30T13:04:28;9.50;62.60
20706;DHT22;10514;49.468;11.044;2024-01-30T13:06:54;9.50;63.00
20706;DHT22;10514;49.468;11.044;2024-01-30T13:09:20;9.60;63.00
20706;DHT22;10514;49.468;11.044;2024-01-30T13:11:46;9.50;63.20
20706;DHT22;10514;49.468;11.044;2024-01-30T13:14:11;9.60;63.10
20706;DHT22;10514;49.468;11.044;2024-01-30T13:16:38;9.60;62.60
20706;DHT22;10514;49.468;11.044;2024-01-30T13:19:03;9.60;63.00
20706;DHT22;10514;49.468;11.044;2024-01-30T13:21:29;9.60;63.30
20706;DHT22;10514;49.468;11.044;2024-01-30T13:23:55;9.60;63.00
20706;DHT22;10514;49.468;11.044;2024-01-30T13:26:21;9.70;62.80
20706;DHT22;10514;49.468;11.044;2024-01-30T13:28:47;9.80;62.90
20706;DHT22;10514;49.468;11.044;2024-01-30T13:31:13;9.70;63.20
20706;DHT22;10514;49.468;11.044;2024-01-30T13:33:40;9.70;63.60
20706;DHT22;10514;49.468;11.044;2024-01-30T13:36:06;9.70;63.50
20706;DHT22;10514;49.468;11.044;2024-01-30T13:38:31;9.70;63.80
20706;DHT22;10514;49.468;11.044;2024-01-30T13:40:57;9.60;64.10
20706;DHT22;10514;49.468;11.044;2024-01-30T13:43:23;9.70;64.40
20706;DHT22;10514;49.468;11.044;2024-01-30T13:45:48;9.70;64.60
20706;DHT22;10514;49.468;11.044;2024-01-30T13:48:14;9.70;64.30
20706;DHT22;10514;49.468;11.044;2024-01-30T13:50:39;9.70;64.10
20706;DHT22;10514;49.468;11.044;2024-01-30T13:53:05;9.80;64.20
20706;DHT22;10514;49.468;11.044;2024-01-30T13:55:30;9.80;64.10
20706;DHT22;10514;49.468;11.044;2024-01-30T13:57:56;9.80;63.50
20706;DHT22;10514;49.468;11.044;2024-01-30T14:00:22;9.80;63.50
20706;DHT22;10514;49.468;11.044;2024-01-30T14:02:48;9.80;63.60
20706;DHT22;10514;49.468;11.044;2024-01-30T14:05:14;9.80;64.50
20706;DHT22;10514;49.468;11.044;2024-01-30T14:07:40;9.80;65.00
20706;DHT22;10514;49.468;11.044;2024-01-30T14:10:09;9.80;65.20
20706;DHT22;10514;49.468;11.044;2024-01-30T14:12:36;9.80;65.10
20706;DHT22;10514;49.468;11.044;2024-01-30T14:15:01;9.70;65.30
20706;DHT22;10514;49.468;11.044;2024-01-30T14:17:27;9.70;65.60
20706;DHT22;10514;49.468;11.044;2024-01-30T14:19:53;9.70;65.80
20706;DHT22;10514;49.468;11.044;2024-01-30T14:22:18;9.70;65.50
20706;DHT22;10514;49.468;11.044;2024-01-30T14:24:44;9.70;65.80
20706;DHT22;10514;49.468;11.044;2024-01-30T14:27:10;9.60;66.20
20706;DHT22;10514;49.468;11.044;2024-01-30T14:29:35;9.60;66.00
20706;DHT22;10514;49.468;11.044;2024-01-30T14:32:02;9.50;66.40
20706;DHT22;10514;49.468;11.044;2024-01-30T14:34:27;9.50;66.80
20706;DHT22;10514;49.468;11.044;2024-01-30T14:36:53;9.40;67.10
20706;DHT22;10514;49.468;11.044;2024-01-30T14:39:18;9.40;67.40
20706;DHT22;10514;49.468;11.044;2024-01-30T14:41:44;9.30;67.50
20706;DHT22;10514;49.468;11.044;2024-01-30T14:44:09;9.30;67.80
20706;DHT22;10514;49.468;11.044;2024-01-30T14:46:36;9.20;68.10
20706;DHT22;10514;49.468;11.044;2024-01-30T14:49:02;9.10;68.20
20706;DHT22;10514;49.468;11.044;2024-01-30T14:51:31;9.10;68.40
20706;DHT22;10514;49.468;11.044;2024-01-30T14:53:56;9.00;68.50
20706;DHT22;10514;49.468;11.044;2024-01-30T14:56:22;9.00;68.80
20706;DHT22;10514;49.468;11.044;2024-01-30T14:58:48;9.00;69.00
20706;DHT22;10514;49.468;11.044;2024-01-30T15:01:14;9.00;69.60
20706;DHT22;10514;49.468;11.044;2024-01-30T15:03:39;9.00;69.00
20706;DHT22;10514;49.468;11.044;2024-01-30T15:06:05;8.90;69.20
20706;DHT22;10514;49.468;11.044;2024-01-30T15:08:31;8.90;69.70
20706;DHT22;10514;49.468;11.044;2024-01-30T15:10:58;8.80;69.60
20706;DHT22;10514;49.468;11.044;2024-01-30T15:13:23;8.90;69.50
20706;DHT22;10514;49.468;11.044;2024-01-30T15:15:49;8.80;69.70
20706;DHT22;10514;49.468;11.044;2024-01-30T15:18:14;8.70;70.00
20706;DHT22;10514;49.468;11.044;2024-01-30T15:20:40;8.70;70.10
20706;DHT22;10514;49.468;11.044;2024-01-30T15:23:05;8.70;70.20